sensor_id;sensor_type;location;lat;lon;timestamp;pressure;altitude;pressure_sealevel;temperature;humidity
73594;BME280;62064;53.406;23.500;2022-07-06T00:00:23;99831.47;;;20.78;65.66
73594;BME280;62064;53.406;23.500;2022-07-06T00:03:03;99825.13;;;20.68;66.15
73594;BME280;62064;53.406;23.500;2022-07-06T00:05:29;99817.53;;;20.70;66.57
73594;BME280;62064;53.406;23.500;2022-07-06T00:08:00;99826.53;;;20.70;67.31
73594;BME280;62064;53.406;23.500;2022-07-06T00:10:27;99822.09;;;20.64;67.76
73594;BME280;62064;53.406;23.500;2022-07-06T00:12:54;99824.28;;;20.62;67.29
73594;BME280;62064;53.406;23.500;2022-07-06T00:15:21;99828.09;;;20.61;67.50
73594;BME280;62064;53.406;23.500;2022-07-06T00:17:48;99828.09;;;20.61;68.15
73594;BME280;62064;53.406;23.500;2022-07-06T00:20:15;99832.41;;;20.57;68.02
73594;BME280;62064;53.406;23.500;2022-07-06T00:22:41;99828.75;;;20.46;69.07
73594;BME280;62064;53.406;23.500;2022-07-06T00:25:07;99824.28;;;20.30;69.22
73594;BME280;62064;53.406;23.500;2022-07-06T00:27:34;99819.91;;;20.29;70.07
73594;BME280;62064;53.406;23.500;2022-07-06T00:30:00;99815.41;;;20.18;70.86
73594;BME280;62064;53.406;23.500;2022-07-06T00:32:28;99807.94;;;20.08;71.20
73594;BME280;62064;53.406;23.500;2022-07-06T00:34:54;99820.50;;;20.09;71.44
73594;BME280;62064;53.406;23.500;2022-07-06T00:37:21;99824.53;;;20.07;71.83
73594;BME280;62064;53.406;23.500;2022-07-06T00:39:47;99814.97;;;20.04;71.55
73594;BME280;62064;53.406;23.500;2022-07-06T00:42:13;99807.94;;;20.08;71.27
73594;BME280;62064;53.406;23.500;2022-07-06T00:44:41;99820.50;;;20.09;71.37
73594;BME280;62064;53.406;23.500;2022-07-06T00:47:07;99801.44;;;20.09;71.59
73594;BME280;62064;53.406;23.500;2022-07-06T00:49:34;99792.16;;;20.10;71.33
73594;BME280;62064;53.406;23.500;2022-07-06T00:52:19;99789.66;;;20.04;70.93
73594;BME280;62064;53.406;23.500;2022-07-06T00:54:46;99787.22;;;20.02;71.37
73594;BME280;62064;53.406;23.500;2022-07-06T00:57:14;99796.91;;;19.93;70.96
73594;BME280;62064;53.406;23.500;2022-07-06T00:59:40;99796.22;;;19.81;71.93
73594;BME280;62064;53.406;23.500;2022-07-06T01:02:06;99796.63;;;19.68;71.36
73594;BME280;62064;53.406;23.500;2022-07-06T01:04:32;99788.59;;;19.56;72.21
73594;BME280;62064;53.406;23.500;2022-07-06T01:07:00;99783.53;;;19.43;73.08
73594;BME280;62064;53.406;23.500;2022-07-06T01:09:27;99774.41;;;19.33;73.71
73594;BME280;62064;53.406;23.500;2022-07-06T01:11:55;99766.16;;;19.28;74.51
73594;BME280;62064;53.406;23.500;2022-07-06T01:14:22;99754.28;;;19.12;73.99
73594;BME280;62064;53.406;23.500;2022-07-06T01:16:51;99770.59;;;19.12;73.93
73594;BME280;62064;53.406;23.500;2022-07-06T01:19:17;99758.03;;;19.06;74.42
73594;BME280;62064;53.406;23.500;2022-07-06T01:21:43;99762.19;;;19.13;73.69
73594;BME280;62064;53.406;23.500;2022-07-06T01:24:10;99763.78;;;19.09;74.32
73594;BME280;62064;53.406;23.500;2022-07-06T01:26:36;99759.91;;;19.05;73.92
73594;BME280;62064;53.406;23.500;2022-07-06T01:29:02;99766.09;;;19.01;73.88
73594;BME280;62064;53.406;23.500;2022-07-06T01:31:28;99754.00;;;18.92;73.92
73594;BME280;62064;53.406;23.500;2022-07-06T01:33:56;99755.56;;;18.88;74.37
73594;BME280;62064;53.406;23.500;2022-07-06T01:36:23;99759.19;;;18.93;75.37
73594;BME280;62064;53.406;23.500;2022-07-06T01:38:52;99744.47;;;18.89;74.77
73594;BME280;62064;53.406;23.500;2022-07-06T01:41:19;99753.78;;;18.93;76.39
73594;BME280;62064;53.406;23.500;2022-07-06T01:43:47;99757.72;;;19.02;76.10
73594;BME280;62064;53.406;23.500;2022-07-06T01:46:14;99747.53;;;19.14;75.95
73594;BME280;62064;53.406;23.500;2022-07-06T01:48:41;99742.75;;;19.21;76.17
73594;BME280;62064;53.406;23.500;2022-07-06T01:51:07;99737.03;;;19.23;74.68
73594;BME280;62064;53.406;23.500;2022-07-06T01:53:35;99742.53;;;19.28;75.07
73594;BME280;62064;53.406;23.500;2022-07-06T01:56:03;99744.75;;;19.31;74.22
73594;BME280;62064;53.406;23.500;2022-07-06T01:58:32;99742.22;;;19.24;74.74
73594;BME280;62064;53.406;23.500;2022-07-06T02:00:58;99739.75;;;19.23;77.08
73594;BME280;62064;53.406;23.500;2022-07-06T02:03:24;99736.34;;;19.33;75.38
73594;BME280;62064;53.406;23.500;2022-07-06T02:05:51;99745.13;;;19.40;75.51
73594;BME280;62064;53.406;23.500;2022-07-06T02:08:17;99739.44;;;19.41;75.30
73594;BME280;62064;53.406;23.500;2022-07-06T02:10:44;99734.34;;;19.45;74.73
73594;BME280;62064;53.406;23.500;2022-07-06T02:13:10;99734.09;;;19.46;75.09
73594;BME280;62064;53.406;23.500;2022-07-06T02:15:37;99731.72;;;19.55;73.62
73594;BME280;62064;53.406;23.500;2022-07-06T02:18:03;99734.72;;;19.53;74.02
73594;BME280;62064;53.406;23.500;2022-07-06T02:20:30;99734.41;;;19.50;73.79
73594;BME280;62064;53.406;23.500;2022-07-06T02:22:56;99719.94;;;19.44;73.45
73594;BME280;62064;53.406;23.500;2022-07-06T02:25:23;99717.13;;;19.39;75.11
73594;BME280;62064;53.406;23.500;2022-07-06T02:27:50;99706.13;;;19.29;73.79
73594;BME280;62064;53.406;23.500;2022-07-06T02:30:17;99703.94;;;19.48;73.53
73594;BME280;62064;53.406;23.500;2022-07-06T02:32:45;99714.28;;;19.51;71.72
73594;BME280;62064;53.406;23.500;2022-07-06T02:35:11;99722.75;;;19.33;71.63
73594;BME280;62064;53.406;23.500;2022-07-06T02:37:38;99730.22;;;19.20;72.34
73594;BME280;62064;53.406;23.500;2022-07-06T02:40:06;99740.31;;;19.03;72.53
73594;BME280;62064;53.406;23.500;2022-07-06T02:42:34;99739.13;;;18.94;72.46
73594;BME280;62064;53.406;23.500;2022-07-06T02:45:04;99744.16;;;18.86;71.82
73594;BME280;62064;53.406;23.500;2022-07-06T02:47:30;99730.34;;;18.70;73.64
73594;BME280;62064;53.406;23.500;2022-07-06T02:49:57;99729.53;;;18.70;74.17
73594;BME280;62064;53.406;23.500;2022-07-06T02:52:23;99713.56;;;18.73;74.47
73594;BME280;62064;53.406;23.500;2022-07-06T02:54:49;99716.50;;;18.72;73.84
73594;BME280;62064;53.406;23.500;2022-07-06T02:57:17;99713.41;;;18.63;73.53
73594;BME280;62064;53.406;23.500;2022-07-06T02:59:43;99718.19;;;18.56;73.93
73594;BME280;62064;53.406;23.500;2022-07-06T03:02:20;99693.59;;;18.29;74.57
73594;BME280;62064;53.406;23.500;2022-07-06T03:04:49;99728.56;;;18.43;74.47
73594;BME280;62064;53.406;23.500;2022-07-06T03:07:16;99726.56;;;18.21;75.21
73594;BME280;62064;53.406;23.500;2022-07-06T03:09:43;99745.56;;;18.21;75.80
73594;BME280;62064;53.406;23.500;2022-07-06T03:12:10;99739.22;;;18.16;75.58
73594;BME280;62064;53.406;23.500;2022-07-06T03:14:36;99749.25;;;18.15;75.62
73594;BME280;62064;53.406;23.500;2022-07-06T03:17:02;99764.66;;;18.26;75.93
73594;BME280;62064;53.406;23.500;2022-07-06T03:19:28;99767.69;;;18.30;76.31
73594;BME280;62064;53.406;23.500;2022-07-06T03:21:57;99752.38;;;18.24;76.26
73594;BME280;62064;53.406;23.500;2022-07-06T03:24:23;99739.63;;;18.24;76.14
73594;BME280;62064;53.406;23.500;2022-07-06T03:26:50;99737.44;;;18.21;76.55
73594;BME280;62064;53.406;23.500;2022-07-06T03:29:16;99723.34;;;18.08;76.51
73594;BME280;62064;53.406;23.500;2022-07-06T03:31:42;99720.41;;;18.09;77.11
73594;BME280;62064;53.406;23.500;2022-07-06T03:34:09;99704.03;;;18.04;76.64
73594;BME280;62064;53.406;23.500;2022-07-06T03:36:38;99730.69;;;18.07;77.35
73594;BME280;62064;53.406;23.500;2022-07-06T03:39:04;99710.28;;;18.05;77.31
73594;BME280;62064;53.406;23.500;2022-07-06T03:41:31;99706.84;;;18.09;76.84
73594;BME280;62064;53.406;23.500;2022-07-06T03:43:58;99699.28;;;18.11;77.22
73594;BME280;62064;53.406;23.500;2022-07-06T03:46:25;99688.75;;;18.15;76.78
73594;BME280;62064;53.406;23.500;2022-07-06T03:48:51;99683.97;;;18.22;76.79
73594;BME280;62064;53.406;23.500;2022-07-06T03:51:18;99676.91;;;18.21;76.14
73594;BME280;62064;53.406;23.500;2022-07-06T03:53:46;99694.19;;;18.15;76.33
73594;BME280;62064;53.406;23.500;2022-07-06T03:56:15;99696.56;;;18.11;76.19
73594;BME280;62064;53.406;23.500;2022-07-06T03:59:01;99710.13;;;18.11;75.86
73594;BME280;62064;53.406;23.500;2022-07-06T04:01:30;99707.91;;;18.08;76.75
73594;BME280;62064;53.406;23.500;2022-07-06T04:03:57;99688.06;;;18.08;76.86
73594;BME280;62064;53.406;23.500;2022-07-06T04:06:24;99674.28;;;18.09;76.84
73594;BME280;62064;53.406;23.500;2022-07-06T04:08:51;99683.75;;;18.07;76.56
73594;BME280;62064;53.406;23.500;2022-07-06T04:11:18;99668.84;;;17.93;76.38
73594;BME280;62064;53.406;23.500;2022-07-06T04:13:44;99690.31;;;17.94;76.36
73594;BME280;62064;53.406;23.500;2022-07-06T04:16:11;99695.97;;;17.93;76.64
73594;BME280;62064;53.406;23.500;2022-07-06T04:18:37;99686.44;;;17.90;76.85
73594;BME280;62064;53.406;23.500;2022-07-06T04:21:07;99681.00;;;17.90;77.01
73594;BME280;62064;53.406;23.500;2022-07-06T04:23:36;99685.94;;;17.93;77.07
73594;BME280;62064;53.406;23.500;2022-07-06T04:26:05;99687.25;;;17.91;77.63
73594;BME280;62064;53.406;23.500;2022-07-06T04:28:34;99683.31;;;17.81;77.64
73594;BME280;62064;53.406;23.500;2022-07-06T04:31:01;99687.56;;;17.77;77.69
73594;BME280;62064;53.406;23.500;2022-07-06T04:33:28;99689.72;;;17.75;76.24
73594;BME280;62064;53.406;23.500;2022-07-06T04:35:54;99711.75;;;17.79;77.40
73594;BME280;62064;53.406;23.500;2022-07-06T04:38:25;99710.16;;;17.66;76.79
73594;BME280;62064;53.406;23.500;2022-07-06T04:40:53;99720.41;;;17.64;77.65
73594;BME280;62064;53.406;23.500;2022-07-06T04:43:20;99711.09;;;17.60;77.51
73594;BME280;62064;53.406;23.500;2022-07-06T04:45:46;99706.38;;;17.56;77.31
73594;BME280;62064;53.406;23.500;2022-07-06T04:48:13;99718.50;;;17.65;77.68
73594;BME280;62064;53.406;23.500;2022-07-06T04:50:40;99719.28;;;17.77;76.01
73594;BME280;62064;53.406;23.500;2022-07-06T04:53:12;99705.81;;;17.82;75.03
73594;BME280;62064;53.406;23.500;2022-07-06T04:55:38;99692.16;;;17.77;74.77
73594;BME280;62064;53.406;23.500;2022-07-06T04:58:04;99698.34;;;17.89;74.71
73594;BME280;62064;53.406;23.500;2022-07-06T05:00:31;99686.59;;;18.00;74.42
73594;BME280;62064;53.406;23.500;2022-07-06T05:02:58;99676.44;;;18.07;73.33
73594;BME280;62064;53.406;23.500;2022-07-06T05:05:26;99665.41;;;17.97;73.72
73594;BME280;62064;53.406;23.500;2022-07-06T05:07:53;99661.63;;;17.98;73.91
73594;BME280;62064;53.406;23.500;2022-07-06T05:10:19;99665.47;;;17.86;75.08
73594;BME280;62064;53.406;23.500;2022-07-06T05:12:50;99657.31;;;17.69;74.72
73594;BME280;62064;53.406;23.500;2022-07-06T05:15:17;99645.91;;;17.67;76.40
73594;BME280;62064;53.406;23.500;2022-07-06T05:17:44;99629.53;;;17.62;75.63
73594;BME280;62064;53.406;23.500;2022-07-06T05:20:10;99631.44;;;17.61;76.30
73594;BME280;62064;53.406;23.500;2022-07-06T05:22:39;99614.72;;;17.53;76.87
73594;BME280;62064;53.406;23.500;2022-07-06T05:25:06;99608.31;;;17.42;77.15
73594;BME280;62064;53.406;23.500;2022-07-06T05:27:39;99611.72;;;17.37;77.52
73594;BME280;62064;53.406;23.500;2022-07-06T05:30:06;99602.00;;;17.25;78.03
73594;BME280;62064;53.406;23.500;2022-07-06T05:32:34;99607.44;;;17.25;78.30
73594;BME280;62064;53.406;23.500;2022-07-06T05:35:00;99614.59;;;17.31;77.71
73594;BME280;62064;53.406;23.500;2022-07-06T05:37:27;99609.53;;;17.34;77.98
73594;BME280;62064;53.406;23.500;2022-07-06T05:39:54;99596.69;;;17.30;77.91
73594;BME280;62064;53.406;23.500;2022-07-06T05:42:20;99599.94;;;17.44;77.00
73594;BME280;62064;53.406;23.500;2022-07-06T05:44:47;99611.19;;;17.52;76.97
73594;BME280;62064;53.406;23.500;2022-07-06T05:47:14;99579.31;;;17.43;75.41
73594;BME280;62064;53.406;23.500;2022-07-06T05:50:01;99612.22;;;17.63;76.17
73594;BME280;62064;53.406;23.500;2022-07-06T05:52:59;99609.16;;;17.76;75.78
73594;BME280;62064;53.406;23.500;2022-07-06T05:55:28;99607.19;;;17.88;74.89
73594;BME280;62064;53.406;23.500;2022-07-06T05:57:55;99612.81;;;17.98;73.63
73594;BME280;62064;53.406;23.500;2022-07-06T06:00:24;99608.09;;;18.10;73.27
73594;BME280;62064;53.406;23.500;2022-07-06T06:02:53;99601.44;;;18.01;73.14
73594;BME280;62064;53.406;23.500;2022-07-06T06:05:20;99597.91;;;17.84;73.82
73594;BME280;62064;53.406;23.500;2022-07-06T06:07:49;99613.94;;;17.86;74.44
73594;BME280;62064;53.406;23.500;2022-07-06T06:10:18;99618.97;;;17.77;74.28
73594;BME280;62064;53.406;23.500;2022-07-06T06:12:49;99609.50;;;17.63;74.65
73594;BME280;62064;53.406;23.500;2022-07-06T06:15:18;99613.94;;;17.69;74.61
73594;BME280;62064;53.406;23.500;2022-07-06T06:17:45;99616.66;;;17.69;74.35
73594;BME280;62064;53.406;23.500;2022-07-06T06:20:13;99610.34;;;17.63;75.16
73594;BME280;62064;53.406;23.500;2022-07-06T06:22:52;99615.41;;;17.60;75.47
73594;BME280;62064;53.406;23.500;2022-07-06T06:25:20;99594.34;;;17.50;75.66
73594;BME280;62064;53.406;23.500;2022-07-06T06:27:47;99608.00;;;17.55;75.04
73594;BME280;62064;53.406;23.500;2022-07-06T06:30:13;99609.25;;;17.64;74.75
73594;BME280;62064;53.406;23.500;2022-07-06T06:32:40;99591.00;;;17.60;74.92
73594;BME280;62064;53.406;23.500;2022-07-06T06:35:06;99605.91;;;17.74;75.04
73594;BME280;62064;53.406;23.500;2022-07-06T06:37:33;99605.22;;;17.83;74.55
73594;BME280;62064;53.406;23.500;2022-07-06T06:40:00;99587.06;;;17.84;73.90
73594;BME280;62064;53.406;23.500;2022-07-06T06:42:27;99592.41;;;17.96;73.62
73594;BME280;62064;53.406;23.500;2022-07-06T06:44:56;99602.09;;;18.08;73.11
73594;BME280;62064;53.406;23.500;2022-07-06T06:47:23;99604.25;;;18.06;73.65
73594;BME280;62064;53.406;23.500;2022-07-06T06:49:50;99606.13;;;18.06;73.41
73594;BME280;62064;53.406;23.500;2022-07-06T06:52:16;99601.22;;;18.03;73.84
73594;BME280;62064;53.406;23.500;2022-07-06T06:54:46;99599.56;;;18.02;73.56
73594;BME280;62064;53.406;23.500;2022-07-06T06:57:12;99597.81;;;17.96;74.07
73594;BME280;62064;53.406;23.500;2022-07-06T06:59:38;99604.38;;;18.16;73.45
73594;BME280;62064;53.406;23.500;2022-07-06T07:02:07;99593.53;;;18.16;73.54
73594;BME280;62064;53.406;23.500;2022-07-06T07:04:33;99590.78;;;18.11;73.70
73594;BME280;62064;53.406;23.500;2022-07-06T07:06:59;99580.38;;;18.08;73.92
73594;BME280;62064;53.406;23.500;2022-07-06T07:09:25;99581.22;;;18.09;73.87
73594;BME280;62064;53.406;23.500;2022-07-06T07:11:53;99585.34;;;18.11;73.82
73594;BME280;62064;53.406;23.500;2022-07-06T07:14:21;99570.38;;;18.09;74.21
73594;BME280;62064;53.406;23.500;2022-07-06T07:16:48;99585.91;;;18.13;73.76
73594;BME280;62064;53.406;23.500;2022-07-06T07:19:15;99581.47;;;18.07;74.18
73594;BME280;62064;53.406;23.500;2022-07-06T07:21:43;99587.47;;;18.09;74.56
73594;BME280;62064;53.406;23.500;2022-07-06T07:24:09;99578.09;;;18.00;74.95
73594;BME280;62064;53.406;23.500;2022-07-06T07:26:36;99588.53;;;18.08;74.65
73594;BME280;62064;53.406;23.500;2022-07-06T07:29:09;99589.53;;;18.02;75.43
73594;BME280;62064;53.406;23.500;2022-07-06T07:31:36;99580.41;;;17.92;75.07
73594;BME280;62064;53.406;23.500;2022-07-06T07:34:02;99589.94;;;17.94;74.97
73594;BME280;62064;53.406;23.500;2022-07-06T07:36:30;99578.28;;;17.77;75.65
73594;BME280;62064;53.406;23.500;2022-07-06T07:38:56;99597.69;;;17.86;75.17
73594;BME280;62064;53.406;23.500;2022-07-06T07:41:22;99599.97;;;17.94;74.92
73594;BME280;62064;53.406;23.500;2022-07-06T07:43:50;99605.50;;;17.99;74.92
73594;BME280;62064;53.406;23.500;2022-07-06T07:46:17;99608.19;;;17.99;75.29
73594;BME280;62064;53.406;23.500;2022-07-06T07:48:44;99595.88;;;17.91;74.59
73594;BME280;62064;53.406;23.500;2022-07-06T07:51:11;99613.94;;;18.02;75.04
73594;BME280;62064;53.406;23.500;2022-07-06T07:53:37;99608.66;;;17.96;75.36
73594;BME280;62064;53.406;23.500;2022-07-06T07:56:05;99618.13;;;17.93;75.68
73594;BME280;62064;53.406;23.500;2022-07-06T07:58:32;99622.91;;;17.86;76.28
73594;BME280;62064;53.406;23.500;2022-07-06T08:01:00;99625.94;;;17.90;76.00
73594;BME280;62064;53.406;23.500;2022-07-06T08:03:26;99625.63;;;17.86;76.01
73594;BME280;62064;53.406;23.500;2022-07-06T08:05:52;99620.19;;;17.86;76.19
73594;BME280;62064;53.406;23.500;2022-07-06T08:08:19;99634.81;;;17.85;76.23
73594;BME280;62064;53.406;23.500;2022-07-06T08:10:46;99628.91;;;17.88;75.83
73594;BME280;62064;53.406;23.500;2022-07-06T08:13:12;99628.16;;;17.93;75.67
73594;BME280;62064;53.406;23.500;2022-07-06T08:15:41;99625.63;;;17.86;76.07
73594;BME280;62064;53.406;23.500;2022-07-06T08:18:08;99624.97;;;17.79;76.66
73594;BME280;62064;53.406;23.500;2022-07-06T08:20:36;99627.09;;;17.77;76.95
73594;BME280;62064;53.406;23.500;2022-07-06T08:23:02;99629.25;;;17.75;76.43
73594;BME280;62064;53.406;23.500;2022-07-06T08:25:30;99620.19;;;17.69;76.23
73594;BME280;62064;53.406;23.500;2022-07-06T08:27:57;99624.13;;;17.62;76.01
73594;BME280;62064;53.406;23.500;2022-07-06T08:30:30;99620.13;;;17.53;76.31
73594;BME280;62064;53.406;23.500;2022-07-06T08:33:01;99628.66;;;17.45;77.49
73594;BME280;62064;53.406;23.500;2022-07-06T08:35:27;99629.38;;;17.40;77.39
73594;BME280;62064;53.406;23.500;2022-07-06T08:37:57;99608.59;;;17.29;77.46
73594;BME280;62064;53.406;23.500;2022-07-06T08:40:23;99607.53;;;17.30;78.02
73594;BME280;62064;53.406;23.500;2022-07-06T08:42:54;99628.00;;;17.37;78.11
73594;BME280;62064;53.406;23.500;2022-07-06T08:45:24;99609.41;;;17.29;78.26
73594;BME280;62064;53.406;23.500;2022-07-06T08:48:03;99610.25;;;17.30;78.63
73594;BME280;62064;53.406;23.500;2022-07-06T08:50:31;99616.00;;;17.33;78.47
73594;BME280;62064;53.406;23.500;2022-07-06T08:52:58;99605.56;;;17.25;78.07
73594;BME280;62064;53.406;23.500;2022-07-06T08:55:26;99631.69;;;17.31;78.66
73594;BME280;62064;53.406;23.500;2022-07-06T08:57:55;99621.91;;;17.30;78.52
73594;BME280;62064;53.406;23.500;2022-07-06T09:00:23;99622.81;;;17.36;79.12
73594;BME280;62064;53.406;23.500;2022-07-06T09:02:51;99618.53;;;17.40;78.44
73594;BME280;62064;53.406;23.500;2022-07-06T09:05:22;99595.97;;;17.34;77.73
73594;BME280;62064;53.406;23.500;2022-07-06T09:07:49;99610.91;;;17.37;77.64
73594;BME280;62064;53.406;23.500;2022-07-06T09:10:20;99606.72;;;17.29;77.04
73594;BME280;62064;53.406;23.500;2022-07-06T09:12:47;99620.47;;;17.40;77.95
73594;BME280;62064;53.406;23.500;2022-07-06T09:15:15;99616.19;;;17.44;77.60
73594;BME280;62064;53.406;23.500;2022-07-06T09:17:43;99620.28;;;17.46;78.39
73594;BME280;62064;53.406;23.500;2022-07-06T09:20:11;99612.56;;;17.38;77.77
73594;BME280;62064;53.406;23.500;2022-07-06T09:22:57;99606.81;;;17.34;77.98
73594;BME280;62064;53.406;23.500;2022-07-06T09:25:26;99617.75;;;17.40;77.30
73594;BME280;62064;53.406;23.500;2022-07-06T09:27:52;99620.75;;;17.26;77.88
73594;BME280;62064;53.406;23.500;2022-07-06T09:30:25;99635.34;;;17.25;77.87
73594;BME280;62064;53.406;23.500;2022-07-06T09:32:55;99631.38;;;17.16;78.12
73594;BME280;62064;53.406;23.500;2022-07-06T09:40:30;99620.38;;;17.06;78.02
73594;BME280;62064;53.406;23.500;2022-07-06T09:43:16;99634.91;;;17.17;78.21
73594;BME280;62064;53.406;23.500;2022-07-06T09:45:56;99625.50;;;17.19;78.41
73594;BME280;62064;53.406;23.500;2022-07-06T09:48:26;99642.91;;;17.23;78.96
73594;BME280;62064;53.406;23.500;2022-07-06T09:50:59;99645.25;;;17.31;77.20
73594;BME280;62064;53.406;23.500;2022-07-06T09:53:28;99636.03;;;17.32;76.61
73594;BME280;62064;53.406;23.500;2022-07-06T09:55:56;99635.19;;;17.32;77.07
73594;BME280;62064;53.406;23.500;2022-07-06T09:58:24;99640.00;;;17.42;77.77
73594;BME280;62064;53.406;23.500;2022-07-06T10:00:50;99629.06;;;17.36;76.23
73594;BME280;62064;53.406;23.500;2022-07-06T10:03:18;99631.00;;;17.24;76.69
73594;BME280;62064;53.406;23.500;2022-07-06T10:05:46;99629.59;;;17.22;77.74
73594;BME280;62064;53.406;23.500;2022-07-06T10:08:14;99634.78;;;17.23;77.59
73594;BME280;62064;53.406;23.500;2022-07-06T10:10:41;99643.59;;;17.30;77.11
73594;BME280;62064;53.406;23.500;2022-07-06T10:13:08;99640.63;;;17.32;78.20
73594;BME280;62064;53.406;23.500;2022-07-06T10:15:39;99648.03;;;17.36;77.84
73594;BME280;62064;53.406;23.500;2022-07-06T10:18:08;99644.75;;;17.34;78.12
73594;BME280;62064;53.406;23.500;2022-07-06T10:20:37;99647.19;;;17.36;77.32
73594;BME280;62064;53.406;23.500;2022-07-06T10:23:07;99652.00;;;17.46;77.27
73594;BME280;62064;53.406;23.500;2022-07-06T10:25:34;99646.47;;;17.41;77.12
73594;BME280;62064;53.406;23.500;2022-07-06T10:28:01;99646.75;;;17.56;76.49
73594;BME280;62064;53.406;23.500;2022-07-06T10:30:28;99658.03;;;17.64;76.20
73594;BME280;62064;53.406;23.500;2022-07-06T10:32:57;99652.06;;;17.62;76.67
73594;BME280;62064;53.406;23.500;2022-07-06T10:35:24;99661.59;;;17.65;75.41
73594;BME280;62064;53.406;23.500;2022-07-06T10:38:08;99654.66;;;17.57;76.04
73594;BME280;62064;53.406;23.500;2022-07-06T10:40:37;99656.69;;;17.50;75.83
73594;BME280;62064;53.406;23.500;2022-07-06T10:43:22;99652.47;;;17.43;75.89
73594;BME280;62064;53.406;23.500;2022-07-06T10:45:50;99663.41;;;17.48;76.68
73594;BME280;62064;53.406;23.500;2022-07-06T10:48:17;99652.16;;;17.39;76.67
73594;BME280;62064;53.406;23.500;2022-07-06T10:50:52;99671.63;;;17.53;76.55
73594;BME280;62064;53.406;23.500;2022-07-06T10:55:52;99667.72;;;17.60;75.45
73594;BME280;62064;53.406;23.500;2022-07-06T11:01:10;99661.84;;;17.52;74.96
73594;BME280;62064;53.406;23.500;2022-07-06T11:06:25;99668.34;;;17.51;75.13
73594;BME280;62064;53.406;23.500;2022-07-06T11:09:01;99678.34;;;17.62;74.84
73594;BME280;62064;53.406;23.500;2022-07-06T11:19:17;99675.66;;;17.78;73.83
73594;BME280;62064;53.406;23.500;2022-07-06T11:21:56;99660.28;;;17.67;72.91
73594;BME280;62064;53.406;23.500;2022-07-06T11:24:26;99673.84;;;17.67;73.90
73594;BME280;62064;53.406;23.500;2022-07-06T11:26:54;99668.06;;;17.64;75.36
73594;BME280;62064;53.406;23.500;2022-07-06T11:29:23;99672.31;;;17.60;75.59
73594;BME280;62064;53.406;23.500;2022-07-06T11:31:51;99673.91;;;17.72;75.67
73594;BME280;62064;53.406;23.500;2022-07-06T11:34:22;99673.19;;;17.77;73.48
73594;BME280;62064;53.406;23.500;2022-07-06T11:36:49;99673.44;;;17.75;73.62
73594;BME280;62064;53.406;23.500;2022-07-06T11:39:21;99661.09;;;17.68;73.97
73594;BME280;62064;53.406;23.500;2022-07-06T11:41:49;99660.13;;;17.74;74.48
73594;BME280;62064;53.406;23.500;2022-07-06T11:44:17;99668.34;;;17.79;73.40
73594;BME280;62064;53.406;23.500;2022-07-06T11:46:43;99673.78;;;17.79;73.76
73594;BME280;62064;53.406;23.500;2022-07-06T11:49:10;99659.78;;;17.70;73.35
73594;BME280;62064;53.406;23.500;2022-07-06T11:51:38;99663.34;;;17.71;73.38
73594;BME280;62064;53.406;23.500;2022-07-06T11:54:20;99663.25;;;17.82;73.37
73594;BME280;62064;53.406;23.500;2022-07-06T11:56:55;99661.09;;;17.84;73.16
73594;BME280;62064;53.406;23.500;2022-07-06T11:59:25;99663.28;;;17.99;72.46
73594;BME280;62064;53.406;23.500;2022-07-06T12:02:02;99650.78;;;17.98;72.09
73594;BME280;62064;53.406;23.500;2022-07-06T12:04:32;99656.34;;;18.08;70.94
73594;BME280;62064;53.406;23.500;2022-07-06T12:07:03;99646.00;;;18.05;70.91
73594;BME280;62064;53.406;23.500;2022-07-06T12:09:35;99638.59;;;18.01;68.92
73594;BME280;62064;53.406;23.500;2022-07-06T12:12:03;99662.28;;;18.05;69.38
73594;BME280;62064;53.406;23.500;2022-07-06T12:14:30;99653.63;;;18.08;69.95
73594;BME280;62064;53.406;23.500;2022-07-06T12:17:03;99660.06;;;18.19;69.96
73594;BME280;62064;53.406;23.500;2022-07-06T12:19:31;99664.81;;;18.28;66.55
73594;BME280;62064;53.406;23.500;2022-07-06T12:21:57;99667.53;;;18.28;65.72
73594;BME280;62064;53.406;23.500;2022-07-06T12:24:25;99674.84;;;18.28;65.18
73594;BME280;62064;53.406;23.500;2022-07-06T12:26:54;99678.28;;;18.23;64.09
73594;BME280;62064;53.406;23.500;2022-07-06T12:29:22;99670.00;;;18.13;63.68
73594;BME280;62064;53.406;23.500;2022-07-06T12:31:53;99682.50;;;18.14;63.52
73594;BME280;62064;53.406;23.500;2022-07-06T12:34:21;99688.44;;;18.11;64.83
73594;BME280;62064;53.406;23.500;2022-07-06T12:39:19;99683.47;;;18.08;65.40
73594;BME280;62064;53.406;23.500;2022-07-06T12:44:20;99694.19;;;18.15;65.88
73594;BME280;62064;53.406;23.500;2022-07-06T12:46:50;99696.63;;;18.16;65.94
73594;BME280;62064;53.406;23.500;2022-07-06T12:49:21;99690.88;;;18.13;66.29
73594;BME280;62064;53.406;23.500;2022-07-06T12:52:02;99675.66;;;18.12;66.21
73594;BME280;62064;53.406;23.500;2022-07-06T12:54:43;99680.34;;;18.16;66.90
73594;BME280;62064;53.406;23.500;2022-07-06T12:57:25;99674.94;;;18.16;66.75
73594;BME280;62064;53.406;23.500;2022-07-06T13:02:23;99674.69;;;18.18;66.93
73594;BME280;62064;53.406;23.500;2022-07-06T13:05:11;99676.16;;;18.25;66.17
73594;BME280;62064;53.406;23.500;2022-07-06T13:07:44;99666.28;;;18.36;65.71
73594;BME280;62064;53.406;23.500;2022-07-06T13:10:12;99656.00;;;18.38;65.40
73594;BME280;62064;53.406;23.500;2022-07-06T13:12:42;99651.41;;;18.39;65.72
73594;BME280;62064;53.406;23.500;2022-07-06T13:15:09;99664.41;;;18.53;64.10
73594;BME280;62064;53.406;23.500;2022-07-06T13:17:36;99645.63;;;18.52;65.15
73594;BME280;62064;53.406;23.500;2022-07-06T13:20:06;99654.50;;;18.64;65.74
73594;BME280;62064;53.406;23.500;2022-07-06T13:22:34;99661.38;;;18.71;65.02
73594;BME280;62064;53.406;23.500;2022-07-06T13:25:00;99631.19;;;18.68;64.38